Time;durP1;ratioP1;P1;durP2;ratioP2;P2;SDS_P1;SDS_P2;PMS_P1;PMS_P2;Temp;Humidity;BMP_temperature;BMP_pressure;BME280_temperature;BME280_humidity;BME280_pressure;Samples;Min_cycle;Max_cycle;Signal;HPM_P1;HPM_P2
2022/12/23 00:02:16;;;;;;;;;;;7.20;98.60;;;;;;5034963;28;19913;-58
2022/12/23 00:04:42;;;;;;;;;;;7.20;98.50;;;;;;5033747;28;19920;-56
2022/12/23 00:07:08;;;;;;;;;;;7.20;98.70;;;;;;5046631;28;19919;-54
2022/12/23 00:09:33;;;;;;;;;;;7.10;98.50;;;;;;5041213;28;19917;-58
2022/12/23 00:17:27;;;;;;;;;;;7.30;98.80;;;;;;5039389;28;19920;-59
2022/12/23 00:19:52;;;;;;;;;;;7.10;98.70;;;;;;5039378;28;19917;-57
2022/12/23 00:22:18;;;;;;;;;;;7.10;98.60;;;;;;5050604;28;19920;-58
2022/12/23 00:24:44;;;;;;;;;;;7.10;98.40;;;;;;5036796;28;19925;-57
2022/12/23 00:27:09;;;;;;;;;;;7.10;98.80;;;;;;5051584;28;20297;-58
2022/12/23 00:29:35;;;;;;;;;;;7.10;98.70;;;;;;5033844;28;20366;-54
2022/12/23 00:32:00;;;;;;;;;;;7.10;98.60;;;;;;5045315;28;20374;-57
2022/12/23 00:34:26;;;;;;;;;;;7.00;98.40;;;;;;5039705;28;20309;-58
2022/12/23 00:36:52;;;;;;;;;;;7.00;98.60;;;;;;5051145;28;19928;-57
2022/12/23 00:44:46;;;;;;;;;;;6.80;98.50;;;;;;5041373;28;19970;-58
2022/12/23 00:50:01;;;;;;;;;;;6.80;98.80;;;;;;5032597;28;19929;-55
2022/12/23 00:52:27;;;;;;;;;;;6.80;98.80;;;;;;5046927;28;19913;-58
2022/12/23 00:54:53;;;;;;;;;;;6.70;98.60;;;;;;5038592;28;19917;-57
2022/12/23 00:57:18;;;;;;;;;;;6.60;99.90;;;;;;5048045;28;19913;-58
2022/12/23 00:59:44;;;;;;;;;;;;;;;;;;5033814;28;19913;-57
2022/12/23 01:07:38;;;;;;;;;;;6.50;99.20;;;;;;5035035;28;20281;-59
2022/12/23 01:10:04;;;;;;;;;;;6.50;99.10;;;;;;5046544;28;19917;-57
2022/12/23 01:12:30;;;;;;;;;;;6.50;99.40;;;;;;5040696;28;19914;-57
2022/12/23 01:14:55;;;;;;;;;;;6.50;99.00;;;;;;5046296;28;19920;-55
2022/12/23 01:17:21;;;;;;;;;;;6.50;99.30;;;;;;5033616;28;19917;-58
2022/12/23 01:19:47;;;;;;;;;;;6.60;99.10;;;;;;5045659;28;19915;-58
2022/12/23 01:22:12;;;;;;;;;;;6.50;99.20;;;;;;5042706;28;19920;-58
2022/12/23 01:24:38;;;;;;;;;;;6.60;99.20;;;;;;5043412;28;20050;-58
2022/12/23 01:27:04;;;;;;;;;;;6.60;99.40;;;;;;5051998;28;19935;-59
2022/12/23 01:29:29;;;;;;;;;;;6.60;99.30;;;;;;5033199;28;20419;-58
2022/12/23 01:31:55;;;;;;;;;;;6.60;98.80;;;;;;5046250;28;20292;-57
2022/12/23 01:34:21;;;;;;;;;;;6.40;99.60;;;;;;5040159;28;19920;-58
2022/12/23 01:36:47;;;;;;;;;;;;;;;;;;5039054;28;21123;-58
2022/12/23 01:39:15;;;;;;;;;;;6.40;99.80;;;;;;5041412;28;19944;-59
2022/12/23 01:44:47;;;;;;;;;;;6.60;99.80;;;;;;5047486;28;20015;-56
2022/12/23 01:47:18;;;;;;;;;;;6.60;99.70;;;;;;5051782;28;19924;-56
2022/12/23 01:49:44;;;;;;;;;;;6.50;99.50;;;;;;5051631;28;19909;-57
2022/12/23 01:52:10;;;;;;;;;;;6.60;99.60;;;;;;5051810;28;19909;-57
2022/12/23 01:54:36;;;;;;;;;;;6.70;99.10;;;;;;5051823;28;20385;-57
2022/12/23 01:57:02;;;;;;;;;;;6.70;99.30;;;;;;5032251;28;19917;-58
2022/12/23 02:05:07;;;;;;;;;;;6.80;99.00;;;;;;5032076;28;19920;-58
2022/12/23 02:10:21;;;;;;;;;;;5.10;98.70;;;;;;5031927;28;20286;-53
2022/12/23 02:12:47;;;;;;;;;;;6.80;99.30;;;;;;5031596;28;20297;-59
2022/12/23 02:18:18;;;;;;;;;;;6.80;99.20;;;;;;5031337;28;19920;-58
2022/12/23 02:21:02;;;;;;;;;;;6.90;99.40;;;;;;5031512;28;19917;-59
2022/12/23 02:23:51;;;;;;;;;;;6.90;99.50;;;;;;5031554;28;19920;-55
2022/12/23 02:26:16;;;;;;;;;;;6.90;99.10;;;;;;5031503;28;19909;-57
2022/12/23 02:29:00;;;;;;;;;;;6.90;99.30;;;;;;5033414;28;19913;-56
2022/12/23 02:31:32;;;;;;;;;;;6.90;99.50;;;;;;5037050;28;19909;-57
2022/12/23 02:33:58;;;;;;;;;;;6.90;99.50;;;;;;5055245;28;19916;-57
2022/12/23 02:36:32;;;;;;;;;;;7.00;99.30;;;;;;5053647;28;20282;-57
2022/12/23 02:39:02;;;;;;;;;;;7.00;99.60;;;;;;5051789;28;20385;-59
2022/12/23 02:41:43;;;;;;;;;;;7.00;99.60;;;;;;5045982;28;19935;-55
2022/12/23 02:44:14;;;;;;;;;;;7.00;99.20;;;;;;5034844;28;20424;-59
2022/12/23 02:46:43;;;;;;;;;;;7.00;99.50;;;;;;5052528;28;19909;-58
2022/12/23 02:49:20;;;;;;;;;;;7.00;99.30;;;;;;5054684;28;19909;-59
2022/12/23 02:51:49;;;;;;;;;;;7.00;99.40;;;;;;5055295;28;20254;-57
2022/12/23 02:54:20;;;;;;;;;;;6.90;99.30;;;;;;5054644;28;19908;-57
2022/12/23 02:56:48;;;;;;;;;;;6.90;99.60;;;;;;5053875;28;19932;-58
2022/12/23 02:59:16;;;;;;;;;;;7.00;99.40;;;;;;5032530;28;19916;-58
2022/12/23 03:01:42;;;;;;;;;;;6.90;99.70;;;;;;5034631;28;19909;-58
2022/12/23 03:04:08;;;;;;;;;;;7.00;99.50;;;;;;5034316;28;19920;-59
2022/12/23 03:06:40;;;;;;;;;;;7.00;99.70;;;;;;5034511;28;19913;-56
2022/12/23 03:09:06;;;;;;;;;;;7.00;99.80;;;;;;5034388;28;19909;-57
2022/12/23 03:11:38;;;;;;;;;;;7.00;99.50;;;;;;5034538;28;19909;-59
2022/12/23 03:14:19;;;;;;;;;;;7.00;99.60;;;;;;5034201;28;19909;-56
2022/12/23 03:16:47;;;;;;;;;;;7.00;99.80;;;;;;5034353;28;19963;-58
2022/12/23 03:19:19;;;;;;;;;;;7.00;99.70;;;;;;5032882;28;20012;-57
2022/12/23 03:21:45;;;;;;;;;;;7.00;99.90;;;;;;5034259;28;19917;-55
2022/12/23 03:24:16;;;;;;;;;;;7.00;99.70;;;;;;5034125;28;19920;-59
2022/12/23 03:26:42;;;;;;;;;;;7.00;99.90;;;;;;5034055;28;19909;-59
2022/12/23 03:29:12;;;;;;;;;;;7.00;99.80;;;;;;5034005;28;19990;-58
2022/12/23 03:31:39;;;;;;;;;;;7.00;99.90;;;;;;5034135;28;19945;-57
2022/12/23 03:34:08;;;;;;;;;;;7.10;99.60;;;;;;5041141;28;19909;-58
2022/12/23 03:36:37;;;;;;;;;;;7.10;99.80;;;;;;5052637;28;19927;-59
2022/12/23 03:39:07;;;;;;;;;;;7.10;99.60;;;;;;5052431;28;19909;-59
2022/12/23 03:41:35;;;;;;;;;;;7.10;99.60;;;;;;5053707;28;20293;-59
2022/12/23 03:44:09;;;;;;;;;;;7.20;99.60;;;;;;5053773;28;19913;-58
2022/12/23 03:46:44;;;;;;;;;;;7.20;99.30;;;;;;5039198;28;19917;-58
2022/12/23 03:49:22;;;;;;;;;;;7.10;99.40;;;;;;5036153;28;20282;-57
2022/12/23 03:51:57;;;;;;;;;;;7.10;99.30;;;;;;5037797;28;19913;-56
2022/12/23 03:54:26;;;;;;;;;;;7.10;99.40;;;;;;5043317;28;19952;-57
2022/12/23 03:57:11;;;;;;;;;;;7.00;99.60;;;;;;5035298;28;19913;-55
2022/12/23 03:59:42;;;;;;;;;;;7.10;99.60;;;;;;5034445;28;19913;-59
2022/12/23 04:02:13;;;;;;;;;;;7.10;99.50;;;;;;5040365;28;20284;-59
2022/12/23 04:04:50;;;;;;;;;;;7.00;99.30;;;;;;5049352;28;19924;-57
2022/12/23 04:07:19;;;;;;;;;;;7.00;99.50;;;;;;5033534;28;19910;-55
2022/12/23 04:09:46;;;;;;;;;;;7.00;99.30;;;;;;5033211;28;20326;-58
2022/12/23 04:12:12;;;;;;;;;;;6.90;99.20;;;;;;5047844;28;19975;-58
2022/12/23 04:14:46;;;;;;;;;;;6.80;99.10;;;;;;5037719;28;19913;-56
2022/12/23 04:17:11;;;;;;;;;;;6.70;99.30;;;;;;5045727;28;19913;-57
2022/12/23 04:19:37;;;;;;;;;;;6.70;99.40;;;;;;5052665;28;19939;-57
2022/12/23 04:22:03;;;;;;;;;;;6.50;99.80;;;;;;5052897;28;20341;-55
2022/12/23 04:24:28;;;;;;;;;;;6.40;99.90;;;;;;5049527;28;19921;-57
2022/12/23 04:30:07;;;;;;;;;;;6.40;99.90;;;;;;5029364;28;19916;-57
2022/12/23 04:32:33;;;;;;;;;;;6.50;99.90;;;;;;5032069;28;19917;-58
2022/12/23 04:34:59;;;;;;;;;;;6.50;99.90;;;;;;5039750;28;19966;-57
2022/12/23 04:37:24;;;;;;;;;;;6.50;99.90;;;;;;5048270;28;20003;-57
2022/12/23 04:39:50;;;;;;;;;;;6.50;99.90;;;;;;5043715;28;19917;-56
2022/12/23 04:42:16;;;;;;;;;;;6.50;99.90;;;;;;5044022;28;19913;-59
2022/12/23 04:44:41;;;;;;;;;;;6.50;99.60;;;;;;5047657;28;20296;-59
2022/12/23 04:47:11;;;;;;;;;;;6.50;99.80;;;;;;5051998;28;19919;-58
2022/12/23 04:49:37;;;;;;;;;;;6.50;99.80;;;;;;5041937;28;19913;-58
2022/12/23 04:52:03;;;;;;;;;;;6.50;99.70;;;;;;5041913;28;20279;-59
2022/12/23 04:54:28;;;;;;;;;;;6.40;99.60;;;;;;5040978;28;20388;-58
2022/12/23 04:56:54;;;;;;;;;;;6.40;99.80;;;;;;5050574;28;19916;-56
2022/12/23 04:59:19;;;;;;;;;;;6.40;99.50;;;;;;5051726;28;19915;-54
2022/12/23 05:01:45;;;;;;;;;;;6.30;99.50;;;;;;5051432;28;20378;-56
2022/12/23 05:04:11;;;;;;;;;;;6.30;99.40;;;;;;5051758;28;19912;-55
2022/12/23 05:06:37;;;;;;;;;;;6.30;99.70;;;;;;5051908;28;19960;-55
2022/12/23 05:09:03;;;;;;;;;;;6.30;99.60;;;;;;5051719;28;19920;-58
2022/12/23 05:11:29;;;;;;;;;;;6.40;99.70;;;;;;5051950;28;19952;-54
2022/12/23 05:13:55;;;;;;;;;;;6.40;99.70;;;;;;5052392;28;19951;-55
2022/12/23 05:16:20;;;;;;;;;;;6.40;99.30;;;;;;5050779;28;20365;-56
2022/12/23 05:18:46;;;;;;;;;;;6.50;99.30;;;;;;5052037;28;20393;-58
2022/12/23 05:21:12;;;;;;;;;;;6.40;99.60;;;;;;5052155;28;20448;-56
2022/12/23 05:23:37;;;;;;;;;;;6.30;99.90;;;;;;5052011;28;19913;-57
2022/12/23 05:26:03;;;;;;;;;;;6.40;99.80;;;;;;5052042;28;19920;-56
2022/12/23 05:28:29;;;;;;;;;;;6.40;99.90;;;;;;5051922;28;19909;-57
2022/12/23 05:33:57;;;;;;;;;;;6.40;99.90;;;;;;5051008;28;19959;-54
2022/12/23 05:36:23;;;;;;;;;;;6.40;99.90;;;;;;5052130;28;19912;-57
2022/12/23 05:38:48;;;;;;;;;;;6.40;99.90;;;;;;5050508;28;19908;-54
2022/12/23 05:41:15;;;;;;;;;;;6.40;99.90;;;;;;5052126;28;20381;-58
2022/12/23 05:43:40;;;;;;;;;;;6.30;99.90;;;;;;5051898;28;19912;-55
2022/12/23 05:46:06;;;;;;;;;;;6.30;99.90;;;;;;5051970;28;20282;-57
2022/12/23 05:48:31;;;;;;;;;;;6.30;99.90;;;;;;5051729;28;19909;-56
2022/12/23 05:50:57;;;;;;;;;;;6.30;99.90;;;;;;5051875;28;19996;-56
2022/12/23 05:53:23;;;;;;;;;;;6.30;99.90;;;;;;5051753;28;20381;-57
2022/12/23 05:55:49;;;;;;;;;;;6.40;99.90;;;;;;5051897;28;19958;-59
2022/12/23 05:58:14;;;;;;;;;;;6.40;99.90;;;;;;5050571;28;19909;-54
2022/12/23 06:00:40;;;;;;;;;;;6.50;99.90;;;;;;5051852;28;19963;-55
2022/12/23 06:03:09;;;;;;;;;;;6.60;99.90;;;;;;5054759;28;19952;-56
2022/12/23 06:05:38;;;;;;;;;;;6.60;99.90;;;;;;5055808;28;19909;-54
2022/12/23 06:08:04;;;;;;;;;;;6.60;99.90;;;;;;5042632;28;19913;-57
2022/12/23 06:10:30;;;;;;;;;;;6.60;99.90;;;;;;5035629;28;20015;-58
2022/12/23 06:12:56;;;;;;;;;;;6.60;99.90;;;;;;5035685;28;19924;-55
2022/12/23 06:15:21;;;;;;;;;;;6.60;99.90;;;;;;5035579;28;19959;-56
2022/12/23 06:17:48;;;;;;;;;;;6.50;99.90;;;;;;5035519;28;19960;-56
2022/12/23 06:20:13;;;;;;;;;;;6.60;99.90;;;;;;5034878;28;19953;-58
2022/12/23 06:22:39;;;;;;;;;;;6.50;99.90;;;;;;5036825;28;19941;-54
2022/12/23 06:25:05;;;;;;;;;;;6.50;99.90;;;;;;5034388;28;19920;-54
2022/12/23 06:27:31;;;;;;;;;;;6.50;99.90;;;;;;5036023;28;19917;-55
2022/12/23 06:29:56;;;;;;;;;;;6.50;99.90;;;;;;5049581;28;19913;-51
2022/12/23 06:32:22;;;;;;;;;;;6.50;99.90;;;;;;5055254;28;19948;-53
2022/12/23 06:34:52;;;;;;;;;;;6.50;99.90;;;;;;5055117;28;19913;-51
2022/12/23 06:37:18;;;;;;;;;;;6.50;99.90;;;;;;5054869;28;19909;-52
2022/12/23 06:39:45;;;;;;;;;;;;;;;;;;5054729;28;19948;-52
2022/12/23 06:42:10;;;;;;;;;;;6.50;99.90;;;;;;5055388;28;19909;-52
2022/12/23 06:44:36;;;;;;;;;;;;;;;;;;5053479;28;19920;-50
2022/12/23 06:47:02;;;;;;;;;;;6.20;99.90;;;;;;5054875;28;19912;-50
2022/12/23 06:49:28;;;;;;;;;;;;;;;;;;5054612;28;20004;-51
2022/12/23 06:51:54;;;;;;;;;;;;;;;;;;5054635;28;19912;-53
2022/12/23 06:54:25;;;;;;;;;;;;;;;;;;5054206;28;19916;-54
2022/12/23 06:56:55;;;;;;;;;;;;;;;;;;5054852;28;19909;-54
2022/12/23 06:59:20;;;;;;;;;;;6.10;99.90;;;;;;5054458;28;19909;-56
2022/12/23 07:01:46;;;;;;;;;;;6.30;99.90;;;;;;5054648;28;19962;-52
2022/12/23 07:04:12;;;;;;;;;;;6.50;99.90;;;;;;5036705;28;19921;-54
2022/12/23 07:06:38;;;;;;;;;;;6.40;99.90;;;;;;5034612;28;19945;-55
2022/12/23 07:09:05;;;;;;;;;;;6.50;99.90;;;;;;5033161;28;20360;-52
2022/12/23 07:11:31;;;;;;;;;;;6.60;99.90;;;;;;5034876;28;19909;-55
2022/12/23 07:13:56;;;;;;;;;;;6.70;99.90;;;;;;5034251;28;19909;-57
2022/12/23 07:16:22;;;;;;;;;;;6.70;99.90;;;;;;5034429;28;19971;-52
2022/12/23 07:18:50;;;;;;;;;;;6.80;99.90;;;;;;5034292;28;19909;-56
2022/12/23 07:21:16;;;;;;;;;;;6.80;99.90;;;;;;5034258;28;19962;-57
2022/12/23 07:23:41;;;;;;;;;;;6.90;99.90;;;;;;5032936;28;19917;-54
2022/12/23 07:26:07;;;;;;;;;;;;;;;;;;5034268;28;19916;-56
2022/12/23 07:28:34;;;;;;;;;;;;;;;;;;5033816;28;19921;-56
2022/12/23 07:31:00;;;;;;;;;;;;;;;;;;5034031;28;20313;-55
2022/12/23 07:33:26;;;;;;;;;;;;;;;;;;5034088;28;20385;-53
2022/12/23 07:36:14;;;;;;;;;;;7.10;99.90;;;;;;5039009;28;19993;-57
2022/12/23 07:38:40;;;;;;;;;;;7.00;99.90;;;;;;5043977;28;19913;-58
2022/12/23 07:41:05;;;;;;;;;;;7.00;99.90;;;;;;5043905;28;19919;-55
2022/12/23 07:43:31;;;;;;;;;;;7.00;99.90;;;;;;5044864;28;19923;-55
2022/12/23 07:46:04;;;;;;;;;;;7.00;99.90;;;;;;5052581;28;19915;-54
2022/12/23 07:48:30;;;;;;;;;;;7.00;99.90;;;;;;5052709;28;19908;-55
2022/12/23 07:51:02;;;;;;;;;;;7.00;99.90;;;;;;5053749;28;19909;-54
2022/12/23 07:53:28;;;;;;;;;;;7.10;99.90;;;;;;5053666;28;19909;-54
2022/12/23 07:55:54;;;;;;;;;;;7.30;99.90;;;;;;5053551;28;19995;-52
2022/12/23 07:58:20;;;;;;;;;;;7.30;99.90;;;;;;5053466;28;19913;-55
2022/12/23 08:00:46;;;;;;;;;;;7.30;99.90;;;;;;5053597;28;19913;-54
2022/12/23 08:03:11;;;;;;;;;;;7.40;99.90;;;;;;5053039;28;19913;-55
2022/12/23 08:05:37;;;;;;;;;;;7.40;99.90;;;;;;5035097;28;19940;-56
2022/12/23 08:08:03;;;;;;;;;;;7.30;99.90;;;;;;5033509;28;19913;-56
2022/12/23 08:10:28;;;;;;;;;;;7.40;99.90;;;;;;5033349;28;20343;-58
2022/12/23 08:12:54;;;;;;;;;;;7.30;99.90;;;;;;5033532;28;19932;-59
2022/12/23 08:15:20;;;;;;;;;;;7.40;99.90;;;;;;5032768;28;19909;-59
2022/12/23 08:17:46;;;;;;;;;;;7.40;99.90;;;;;;5032255;28;19909;-59
2022/12/23 08:20:11;;;;;;;;;;;7.40;99.90;;;;;;5032952;28;19948;-53
2022/12/23 08:22:40;;;;;;;;;;;7.40;99.90;;;;;;5031758;28;19909;-57
2022/12/23 08:25:06;;;;;;;;;;;7.50;99.90;;;;;;5032142;28;19928;-58
2022/12/23 08:27:32;;;;;;;;;;;7.50;99.90;;;;;;5033097;28;19955;-58
2022/12/23 08:29:57;;;;;;;;;;;7.50;99.90;;;;;;5032865;28;20291;-59
2022/12/23 08:32:25;;;;;;;;;;;7.60;99.90;;;;;;5033092;28;19920;-59
2022/12/23 08:34:54;;;;;;;;;;;;;;;;;;5032868;28;19917;-58
2022/12/23 08:37:20;;;;;;;;;;;7.50;99.90;;;;;;5032682;28;19984;-58
2022/12/23 08:39:45;;;;;;;;;;;7.70;99.90;;;;;;5031926;28;20572;-57
2022/12/23 08:42:11;;;;;;;;;;;7.80;99.90;;;;;;5032885;28;19909;-57
2022/12/23 08:44:37;;;;;;;;;;;7.80;99.90;;;;;;5032687;28;20008;-58
2022/12/23 08:47:02;;;;;;;;;;;7.80;99.90;;;;;;5032668;28;19916;-55
2022/12/23 08:49:28;;;;;;;;;;;7.90;99.90;;;;;;5032451;28;19910;-54
2022/12/23 08:51:54;;;;;;;;;;;;;;;;;;5033155;28;19916;-56
2022/12/23 08:54:22;;;;;;;;;;;;;;;;;;5032604;28;19909;-55
2022/12/23 08:56:48;;;;;;;;;;;;;;;;;;5032718;28;19909;-54
2022/12/23 08:59:14;;;;;;;;;;;;;;;;;;5031004;28;19913;-55
2022/12/23 09:01:40;;;;;;;;;;;;;;;;;;5032453;28;19963;-54
2022/12/23 09:04:06;;;;;;;;;;;;;;;;;;5032268;28;19943;-57
2022/12/23 09:06:32;;;;;;;;;;;;;;;;;;5032387;28;19909;-59
2022/12/23 09:08:58;;;;;;;;;;;;;;;;;;5032277;28;19909;-57
2022/12/23 09:11:27;;;;;;;;;;;;;;;;;;5031046;28;20436;-60
2022/12/23 09:13:54;;;;;;;;;;;8.10;99.90;;;;;;5032313;28;19913;-57
2022/12/23 09:16:20;;;;;;;;;;;8.30;99.90;;;;;;5032099;28;20285;-59
2022/12/23 09:18:45;;;;;;;;;;;8.30;99.90;;;;;;5031985;28;19909;-55
2022/12/23 09:21:16;;;;;;;;;;;8.20;99.90;;;;;;5032140;28;19963;-56
2022/12/23 09:23:42;;;;;;;;;;;8.10;99.90;;;;;;5032164;28;19913;-58
2022/12/23 09:26:16;;;;;;;;;;;8.10;99.90;;;;;;5032443;28;20017;-56
2022/12/23 09:28:41;;;;;;;;;;;8.10;99.90;;;;;;5030661;28;20000;-54
2022/12/23 09:31:08;;;;;;;;;;;8.20;99.90;;;;;;5032059;28;20040;-59
2022/12/23 09:33:34;;;;;;;;;;;8.20;99.90;;;;;;5032009;28;19920;-57
2022/12/23 09:36:00;;;;;;;;;;;8.20;99.90;;;;;;5033373;28;19909;-59
2022/12/23 09:38:26;;;;;;;;;;;8.20;99.90;;;;;;5036176;28;20000;-54
2022/12/23 09:40:52;;;;;;;;;;;8.20;99.90;;;;;;5036123;28;20007;-58
2022/12/23 09:43:53;;;;;;;;;;;8.20;99.90;;;;;;5036033;28;19914;-58
2022/12/23 09:46:19;;;;;;;;;;;;;;;;;;4958578;28;20395;-57
2022/12/23 09:48:47;;;;;;;;;;;;;;;;;;5023357;28;19916;-59
2022/12/23 09:51:13;;;;;;;;;;;;;;;;;;5036100;28;19910;-58
2022/12/23 09:53:38;;;;;;;;;;;;;;;;;;5034694;28;19909;-59
2022/12/23 09:56:04;;;;;;;;;;;;;;;;;;5035851;28;19932;-57
2022/12/23 09:58:31;;;;;;;;;;;;;;;;;;5035643;28;20365;-55
2022/12/23 10:00:57;;;;;;;;;;;;;;;;;;5035789;28;19916;-54
2022/12/23 10:03:23;;;;;;;;;;;;;;;;;;5035646;28;19959;-59
2022/12/23 10:08:35;;;;;;;;;;;8.70;99.90;;;;;;5033048;28;20432;-59
2022/12/23 10:11:01;;;;;;;;;;;8.80;99.90;;;;;;5035571;28;19909;-57
2022/12/23 10:13:28;;;;;;;;;;;;;;;;;;5035495;28;19916;-59
2022/12/23 10:15:56;;;;;;;;;;;8.80;99.80;;;;;;5035508;28;19940;-58
2022/12/23 10:18:25;;;;;;;;;;;;;;;;;;5035243;28;19932;-60
2022/12/23 10:20:54;;;;;;;;;;;;;;;;;;5034008;28;19920;-60
2022/12/23 10:23:20;;;;;;;;;;;;;;;;;;5035269;28;20131;-60
2022/12/23 10:25:46;;;;;;;;;;;;;;;;;;5035230;28;20405;-59
2022/12/23 10:28:12;;;;;;;;;;;;;;;;;;5033936;28;19909;-57
2022/12/23 10:30:40;;;;;;;;;;;9.10;99.60;;;;;;5035241;28;20359;-60
2022/12/23 10:33:09;;;;;;;;;;;;;;;;;;5035194;28;19915;-60
2022/12/23 10:35:35;;;;;;;;;;;;;;;;;;5035127;28;19920;-60
2022/12/23 10:38:03;;;;;;;;;;;;;;;;;;5034970;28;20297;-60
2022/12/23 10:40:29;;;;;;;;;;;;;;;;;;5034871;28;19909;-59
2022/12/23 10:42:55;;;;;;;;;;;;;;;;;;5034886;28;20373;-58
2022/12/23 10:45:21;;;;;;;;;;;;;;;;;;5034922;28;19909;-59
2022/12/23 10:47:49;;;;;;;;;;;9.50;99.00;;;;;;5034639;28;19913;-60
2022/12/23 10:50:36;;;;;;;;;;;9.60;98.70;;;;;;5034770;28;19909;-59
2022/12/23 10:53:02;;;;;;;;;;;;;;;;;;5034803;28;20007;-59
2022/12/23 10:55:31;;;;;;;;;;;9.60;97.00;;;;;;5034842;28;19913;-55
2022/12/23 10:58:00;;;;;;;;;;;;;;;;;;5034719;28;19915;-57
2022/12/23 11:00:26;;;;;;;;;;;;;;;;;;5034563;28;19909;-56
2022/12/23 11:02:52;;;;;;;;;;;;;;;;;;5034479;28;20331;-54
2022/12/23 11:05:25;;;;;;;;;;;9.70;95.60;;;;;;5034486;28;19909;-54
2022/12/23 11:07:51;;;;;;;;;;;;;;;;;;5034258;28;20003;-58
2022/12/23 11:13:02;;;;;;;;;;;9.80;95.30;;;;;;5032768;28;19916;-58
2022/12/23 11:15:35;;;;;;;;;;;9.90;95.70;;;;;;5035198;28;19909;-57
2022/12/23 11:18:04;;;;;;;;;;;10.10;95.60;;;;;;5041078;28;19913;-55
2022/12/23 11:20:30;;;;;;;;;;;10.30;94.90;;;;;;5052984;28;19920;-56
2022/12/23 11:23:18;;;;;;;;;;;10.40;94.70;;;;;;5053729;28;20000;-54
2022/12/23 11:25:43;;;;;;;;;;;10.60;93.90;;;;;;5035921;28;19913;-51
2022/12/23 11:28:15;;;;;;;;;;;10.60;91.70;;;;;;5052704;28;19919;-56
2022/12/23 11:30:58;;;;;;;;;;;10.50;93.10;;;;;;5053025;28;19909;-58
2022/12/23 11:33:24;;;;;;;;;;;;;;;;;;5054475;28;19967;-58
2022/12/23 11:35:50;;;;;;;;;;;;;;;;;;5053823;28;19958;-57
2022/12/23 11:44:03;;;;;;;;;;;;;;;;;;5050402;28;20345;-60
2022/12/23 11:46:29;;;;;;;;;;;;;;;;;;5047127;28;19913;-60
2022/12/23 11:48:56;;;;;;;;;;;;;;;;;;5050526;28;19912;-59
2022/12/23 11:51:25;;;;;;;;;;;11.20;91.90;;;;;;5047465;28;19912;-60
2022/12/23 11:53:58;;;;;;;;;;;12.00;92.80;;;;;;5034714;28;20371;-59
2022/12/23 11:56:25;;;;;;;;;;;12.30;85.50;;;;;;5038010;28;19944;-60
2022/12/23 11:59:00;;;;;;;;;;;12.20;88.80;;;;;;5041605;28;19992;-60
2022/12/23 12:01:26;;;;;;;;;;;12.50;88.20;;;;;;5040947;28;19966;-61
2022/12/23 12:03:58;;;;;;;;;;;12.60;88.40;;;;;;5034570;28;20469;-60
2022/12/23 12:06:24;;;;;;;;;;;12.50;88.70;;;;;;5044092;28;19916;-60
2022/12/23 12:08:52;;;;;;;;;;;12.20;86.40;;;;;;5039524;28;19913;-59
2022/12/23 12:11:25;;;;;;;;;;;11.90;90.10;;;;;;5040500;28;19966;-58
2022/12/23 12:13:57;;;;;;;;;;;11.70;90.90;;;;;;5048520;28;20267;-59
2022/12/23 12:16:45;;;;;;;;;;;11.50;90.90;;;;;;5042952;28;19935;-59
2022/12/23 12:19:15;;;;;;;;;;;11.40;91.80;;;;;;5020379;28;19920;-59
2022/12/23 12:21:41;;;;;;;;;;;11.30;92.10;;;;;;5051107;28;19943;-60
2022/12/23 12:24:13;;;;;;;;;;;11.30;92.10;;;;;;5042804;28;19916;-60
2022/12/23 12:26:39;;;;;;;;;;;11.30;92.30;;;;;;5042712;28;19913;-59
2022/12/23 12:29:17;;;;;;;;;;;11.30;92.60;;;;;;5049298;28;19913;-60
2022/12/23 12:31:47;;;;;;;;;;;11.20;92.30;;;;;;5048159;28;20011;-60
2022/12/23 12:34:13;;;;;;;;;;;11.20;92.40;;;;;;5034845;28;19921;-60
2022/12/23 12:36:54;;;;;;;;;;;11.20;92.70;;;;;;5045321;28;19913;-60
2022/12/23 12:39:26;;;;;;;;;;;11.10;92.50;;;;;;5049126;28;19959;-58
2022/12/23 12:41:54;;;;;;;;;;;11.10;92.90;;;;;;5035332;28;19913;-58
2022/12/23 12:44:53;;;;;;;;;;;11.00;92.90;;;;;;5033662;28;19917;-58
2022/12/23 12:47:32;;;;;;;;;;;10.90;93.10;;;;;;5020241;28;19956;-60
2022/12/23 12:50:34;;;;;;;;;;;14.80;94.30;;;;;;5047307;28;19959;-58
2022/12/23 12:53:03;;;;;;;;;;;10.90;93.20;;;;;;4990633;28;20013;-59
2022/12/23 12:55:31;;;;;;;;;;;10.80;93.50;;;;;;5040375;28;19920;-60
2022/12/23 12:57:56;;;;;;;;;;;10.80;93.90;;;;;;5049888;28;20577;-57
2022/12/23 13:00:23;;;;;;;;;;;10.90;94.00;;;;;;5049133;28;20019;-60
2022/12/23 13:03:07;;;;;;;;;;;10.80;94.10;;;;;;5042495;28;20008;-58
2022/12/23 13:05:54;;;;;;;;;;;10.80;94.10;;;;;;5047370;28;19925;-57
2022/12/23 13:08:36;;;;;;;;;;;10.80;94.40;;;;;;5052305;28;20320;-59
2022/12/23 13:11:08;;;;;;;;;;;;;;;;;;5049189;28;20328;-57
2022/12/23 13:13:34;;;;;;;;;;;;;;;;;;5052265;28;20430;-57
2022/12/23 13:16:13;;;;;;;;;;;10.70;94.80;;;;;;5044706;28;20012;-59
2022/12/23 13:18:45;;;;;;;;;;;10.70;95.10;;;;;;5047044;28;20599;-60
2022/12/23 13:21:14;;;;;;;;;;;;;;;;;;5051718;28;19917;-60
2022/12/23 13:23:58;;;;;;;;;;;10.70;95.20;;;;;;5040949;28;19916;-59
2022/12/23 13:26:44;;;;;;;;;;;10.70;94.70;;;;;;5042011;28;20105;-60
2022/12/23 13:29:19;;;;;;;;;;;10.70;94.90;;;;;;5044150;28;19913;-61
2022/12/23 13:31:47;;;;;;;;;;;10.70;94.90;;;;;;5042377;28;19943;-60
2022/12/23 13:34:42;;;;;;;;;;;10.70;94.70;;;;;;5041298;28;19913;-56
2022/12/23 13:37:22;;;;;;;;;;;10.70;95.00;;;;;;5030674;28;19921;-56
2022/12/23 13:39:51;;;;;;;;;;;10.70;94.80;;;;;;5033013;28;19918;-60
2022/12/23 13:42:24;;;;;;;;;;;10.60;95.10;;;;;;5033175;28;20047;-59
2022/12/23 13:44:56;;;;;;;;;;;10.60;94.70;;;;;;5042072;28;19962;-59
2022/12/23 13:47:28;;;;;;;;;;;10.60;95.00;;;;;;5036144;28;19921;-58
2022/12/23 13:49:58;;;;;;;;;;;10.60;95.20;;;;;;5031864;28;19917;-58
2022/12/23 13:52:49;;;;;;;;;;;10.60;95.20;;;;;;5039011;28;20373;-56
2022/12/23 13:55:22;;;;;;;;;;;10.60;94.80;;;;;;5040507;28;20035;-55
2022/12/23 13:57:58;;;;;;;;;;;10.60;95.00;;;;;;5046185;28;19958;-53
2022/12/23 14:00:28;;;;;;;;;;;10.60;95.00;;;;;;5039013;28;19928;-57
2022/12/23 14:02:58;;;;;;;;;;;10.50;95.30;;;;;;5047730;28;19916;-57
2022/12/23 14:05:27;;;;;;;;;;;10.50;94.90;;;;;;5051700;28;19916;-54
2022/12/23 14:07:53;;;;;;;;;;;10.50;95.00;;;;;;5033999;28;19952;-55
2022/12/23 14:10:21;;;;;;;;;;;10.40;95.10;;;;;;5032951;28;19963;-58
2022/12/23 14:12:46;;;;;;;;;;;10.40;95.30;;;;;;5040878;28;20426;-57
2022/12/23 14:15:20;;;;;;;;;;;10.40;95.10;;;;;;5033937;28;19971;-56
2022/12/23 14:18:05;;;;;;;;;;;10.40;95.40;;;;;;5031803;28;19913;-53
2022/12/23 14:20:36;;;;;;;;;;;10.40;95.40;;;;;;5031519;28;19955;-54
2022/12/23 14:23:02;;;;;;;;;;;;;;;;;;5044143;28;19935;-55
2022/12/23 14:25:47;;;;;;;;;;;10.20;95.30;;;;;;5053136;28;19917;-54
2022/12/23 14:28:12;;;;;;;;;;;10.30;95.70;;;;;;5047974;28;20567;-53
2022/12/23 14:30:41;;;;;;;;;;;7.30;95.10;;;;;;5045127;28;19958;-53
2022/12/23 14:33:29;;;;;;;;;;;10.30;95.90;;;;;;5036780;28;19964;-55
2022/12/23 14:36:13;;;;;;;;;;;10.30;95.70;;;;;;5039565;28;19913;-53
2022/12/23 14:38:39;;;;;;;;;;;10.30;95.70;;;;;;5040282;28;20008;-55
2022/12/23 14:41:05;;;;;;;;;;;;;;;;;;5051881;28;19952;-54
2022/12/23 14:43:31;;;;;;;;;;;;;;;;;;5050370;28;19948;-54
2022/12/23 14:46:00;;;;;;;;;;;10.20;95.90;;;;;;5055026;28;19992;-57
2022/12/23 14:48:35;;;;;;;;;;;10.10;96.40;;;;;;5047202;28;19913;-56
2022/12/23 14:51:01;;;;;;;;;;;10.10;96.30;;;;;;5038374;28;20039;-55
2022/12/23 14:53:27;;;;;;;;;;;10.20;96.20;;;;;;5035740;28;20535;-57
2022/12/23 14:56:12;;;;;;;;;;;10.20;96.00;;;;;;5048212;28;19916;-58
2022/12/23 14:58:49;;;;;;;;;;;10.20;96.30;;;;;;5047148;28;19952;-55
2022/12/23 15:01:17;;;;;;;;;;;10.20;96.20;;;;;;5038128;28;20024;-56
2022/12/23 15:03:50;;;;;;;;;;;10.10;96.20;;;;;;5046974;28;20472;-57
2022/12/23 15:06:19;;;;;;;;;;;10.10;96.10;;;;;;5043713;28;20373;-55
2022/12/23 15:08:45;;;;;;;;;;;10.10;96.40;;;;;;5048284;28;20007;-57
2022/12/23 15:11:30;;;;;;;;;;;10.10;96.30;;;;;;5052658;28;19967;-55
2022/12/23 15:13:58;;;;;;;;;;;10.10;96.20;;;;;;5047994;28;19912;-56
2022/12/23 15:19:43;;;;;;;;;;;9.90;96.30;;;;;;5031118;28;20000;-57
2022/12/23 15:22:09;;;;;;;;;;;9.90;97.10;;;;;;5050663;28;20019;-55
2022/12/23 15:24:54;;;;;;;;;;;9.90;96.70;;;;;;5042406;28;20210;-59
2022/12/23 15:27:20;;;;;;;;;;;9.90;96.90;;;;;;5033621;28;19916;-58
2022/12/23 15:29:50;;;;;;;;;;;9.90;96.90;;;;;;5039039;28;19913;-59
2022/12/23 15:32:16;;;;;;;;;;;9.90;96.90;;;;;;5052243;28;19913;-56
2022/12/23 15:34:43;;;;;;;;;;;9.90;96.50;;;;;;5050895;28;19919;-60
2022/12/23 15:37:09;;;;;;;;;;;9.90;96.80;;;;;;5048487;28;19917;-54
2022/12/23 15:39:36;;;;;;;;;;;;;;;;;;5042630;28;19909;-57
2022/12/23 15:42:02;;;;;;;;;;;;;;;;;;5038001;28;19948;-55
2022/12/23 15:44:28;;;;;;;;;;;;;;;;;;5074594;28;19960;-56
2022/12/23 15:46:57;;;;;;;;;;;;;;;;;;5073692;28;19913;-55
2022/12/23 15:49:23;;;;;;;;;;;9.80;96.70;;;;;;5073460;28;19909;-55
2022/12/23 15:52:00;;;;;;;;;;;9.80;97.10;;;;;;5055626;28;19909;-56
2022/12/23 15:54:29;;;;;;;;;;;9.80;96.90;;;;;;5072657;28;19916;-58